Time;durP1;ratioP1;P1;durP2;ratioP2;P2;SDS_P1;SDS_P2;PMS_P1;PMS_P2;Temp;Humidity;BMP_temperature;BMP_pressure;BME280_temperature;BME280_humidity;BME280_pressure;Samples;Min_cycle;Max_cycle;Signal;HPM_P1;HPM_P2
2021/05/22 08:24:42;;;;;;;3.92;1.77;;;15.80;99.90;;;;;;5089253;28;20396;-73
2021/05/22 08:29:25;;;;;;;3.00;1.80;;;15.70;99.90;;;;;;5152062;27;20479;-72
2021/05/22 08:31:50;;;;;;;3.37;1.50;;;15.70;99.90;;;;;;5151987;27;20549;-72
2021/05/22 08:34:16;;;;;;;3.50;1.70;;;15.70;99.90;;;;;;5161446;27;20193;-71
2021/05/22 16:00:09;;;;;;;2.63;1.00;;;14.50;99.90;;;;;;5068586;28;20172;-73
2021/05/22 16:03:00;;;;;;;1.10;1.00;;;14.70;99.90;;;;;;5066758;28;20190;-68
2021/05/22 16:05:45;;;;;;;1.87;1.00;;;14.80;99.90;;;;;;5068463;28;20212;-71
2021/05/22 16:08:11;;;;;;;4.83;2.60;;;15.10;99.90;;;;;;5068089;28;20649;-69
2021/05/22 16:10:37;;;;;;;1.60;1.03;;;15.10;99.90;;;;;;5066765;28;20189;-69
2021/05/22 16:13:03;;;;;;;2.07;1.10;;;15.10;99.90;;;;;;5067800;28;20622;-69
2021/05/22 16:15:28;;;;;;;2.47;1.23;;;15.20;99.90;;;;;;5068699;28;20551;-70
2021/05/22 16:17:56;;;;;;;1.07;0.97;;;15.10;99.90;;;;;;5067309;28;20169;-70
2021/05/22 16:20:22;;;;;;;1.33;0.87;;;14.90;99.90;;;;;;5065971;28;20260;-69
2021/05/22 16:22:47;;;;;;;1.20;0.90;;;14.90;99.90;;;;;;5067459;28;20280;-67
2021/05/22 16:25:13;;;;;;;2.77;1.20;;;14.80;99.90;;;;;;5068154;28;20196;-67
2021/05/22 16:27:39;;;;;;;1.50;1.00;;;14.90;99.90;;;;;;5066759;28;20217;-66
2021/05/22 16:30:06;;;;;;;1.00;0.90;;;14.90;99.90;;;;;;5066640;28;20279;-66
2021/05/22 16:32:32;;;;;;;1.23;1.10;;;14.80;99.90;;;;;;5068502;28;20284;-67
2021/05/22 16:34:57;;;;;;;3.60;1.40;;;14.90;99.90;;;;;;5067520;28;20165;-66
2021/05/22 16:37:23;;;;;;;1.77;0.97;;;14.90;99.90;;;;;;5066975;28;20169;-66
2021/05/22 16:39:48;;;;;;;2.53;1.30;;;15.00;99.90;;;;;;5067998;28;20243;-66
2021/05/22 16:42:14;;;;;;;1.40;1.30;;;15.10;99.90;;;;;;5067195;28;20633;-66
2021/05/22 16:44:39;;;;;;;2.73;1.20;;;15.10;99.90;;;;;;5067329;28;20193;-66
2021/05/22 16:47:05;;;;;;;2.20;1.27;;;15.00;99.90;;;;;;5065491;28;20187;-65
2021/05/22 16:49:35;;;;;;;2.60;1.10;;;14.90;99.90;;;;;;5067770;28;20169;-68
2021/05/22 16:52:01;;;;;;;0.97;0.97;;;14.90;99.90;;;;;;5067994;28;20174;-68
2021/05/22 16:54:27;;;;;;;2.13;1.20;;;14.80;99.90;;;;;;5067050;28;20208;-68
2021/05/22 16:56:52;;;;;;;2.63;1.10;;;14.80;99.90;;;;;;5068108;28;20171;-66
2021/05/22 16:59:21;;;;;;;1.50;1.17;;;14.70;99.90;;;;;;5067717;28;20178;-67
2021/05/22 17:01:47;;;;;;;2.57;1.10;;;14.60;99.90;;;;;;5068786;28;20166;-66
2021/05/22 17:04:12;;;;;;;1.40;1.10;;;14.60;99.90;;;;;;5063838;28;20220;-67
2021/05/22 17:06:38;;;;;;;1.60;1.50;;;14.60;99.90;;;;;;5054314;28;20181;-67
2021/05/22 17:09:04;;;;;;;1.70;1.60;;;14.50;99.90;;;;;;5053880;28;20174;-67
2021/05/22 17:11:29;;;;;;;1.80;1.30;;;14.60;99.90;;;;;;5052577;28;20170;-67
2021/05/22 17:13:55;;;;;;;2.07;1.10;;;14.50;99.90;;;;;;5053723;28;20708;-66
2021/05/22 17:16:20;;;;;;;1.37;1.20;;;14.40;99.90;;;;;;5053672;28;20170;-67
2021/05/22 17:18:46;;;;;;;1.87;0.80;;;14.40;99.90;;;;;;5053029;28;20252;-68
2021/05/22 17:21:11;;;;;;;1.10;1.00;;;14.20;99.90;;;;;;5053170;28;20646;-67
2021/05/22 17:23:37;;;;;;;1.20;1.10;;;14.10;99.90;;;;;;5051609;28;20674;-67
2021/05/22 17:26:02;;;;;;;3.40;1.20;;;14.10;99.90;;;;;;5052372;28;20180;-64
2021/05/22 17:28:28;;;;;;;2.20;1.03;;;14.10;99.90;;;;;;5052833;28;20180;-66
2021/05/22 17:30:53;;;;;;;1.17;1.07;;;14.10;99.90;;;;;;5051843;28;20701;-67
2021/05/22 17:33:20;;;;;;;1.30;0.93;;;14.20;99.90;;;;;;5052562;28;20244;-66
2021/05/22 17:35:46;;;;;;;2.23;1.10;;;14.20;99.90;;;;;;5052734;28;20173;-66
2021/05/22 17:38:11;;;;;;;1.83;1.10;;;14.30;99.90;;;;;;5053086;28;20260;-66
2021/05/22 17:40:37;;;;;;;1.13;0.97;;;14.30;99.90;;;;;;5051367;28;20269;-67
2021/05/22 17:43:03;;;;;;;1.40;0.90;;;14.40;99.90;;;;;;5051197;28;20221;-67
2021/05/22 17:45:30;;;;;;;1.30;1.00;;;14.40;99.90;;;;;;5052500;28;20177;-67
2021/05/22 17:47:56;;;;;;;1.20;1.10;;;14.30;99.90;;;;;;5053690;28;20186;-67
2021/05/22 17:50:23;;;;;;;3.50;1.10;;;14.20;99.90;;;;;;5051547;28;20181;-69
2021/05/22 17:52:51;;;;;;;1.10;1.00;;;14.20;99.90;;;;;;5052042;28;20220;-69
2021/05/22 17:55:18;;;;;;;1.63;1.20;;;14.10;99.90;;;;;;5052324;28;20218;-66
2021/05/22 17:57:44;;;;;;;2.17;1.10;;;14.10;99.90;;;;;;5052301;28;20162;-66
2021/05/22 18:00:13;;;;;;;1.33;1.10;;;14.00;99.90;;;;;;5051525;28;20173;-66
2021/05/22 18:02:41;;;;;;;2.00;1.40;;;14.00;99.90;;;;;;5052093;28;20577;-67
2021/05/22 18:05:09;;;;;;;1.60;1.30;;;14.00;99.90;;;;;;5052769;28;20177;-67
2021/05/22 18:07:35;;;;;;;2.30;1.50;;;14.00;99.90;;;;;;5052757;28;20200;-67
2021/05/22 18:10:00;;;;;;;2.40;1.20;;;13.90;99.90;;;;;;5052965;28;20182;-67
2021/05/22 18:12:27;;;;;;;1.50;1.40;;;13.90;99.90;;;;;;5052286;28;20194;-65
2021/05/22 18:14:52;;;;;;;1.77;1.27;;;13.90;99.90;;;;;;5053135;28;20651;-66
2021/05/22 18:17:18;;;;;;;2.13;1.50;;;13.90;99.90;;;;;;5051918;28;20228;-66
2021/05/22 18:19:43;;;;;;;1.60;1.50;;;13.80;99.90;;;;;;5053049;28;20209;-64
2021/05/22 18:22:09;;;;;;;2.60;1.50;;;13.70;99.90;;;;;;5051646;28;20612;-66
2021/05/22 18:24:35;;;;;;;2.03;1.20;;;13.60;99.90;;;;;;5052676;28;20397;-65
2021/05/22 18:27:00;;;;;;;1.50;1.30;;;13.60;99.90;;;;;;5052634;28;20169;-65
2021/05/22 18:29:26;;;;;;;1.40;1.30;;;13.50;99.90;;;;;;5052174;28;20200;-66
2021/05/22 18:31:51;;;;;;;1.33;1.23;;;13.40;99.90;;;;;;5054177;28;20233;-70
2021/05/22 18:34:17;;;;;;;2.07;1.33;;;13.50;99.90;;;;;;5054824;28;20208;-66
2021/05/22 18:36:43;;;;;;;1.30;1.20;;;13.40;99.90;;;;;;5052567;28;20166;-62
2021/05/22 18:39:08;;;;;;;1.53;1.30;;;13.40;99.90;;;;;;5051521;28;20764;-64
2021/05/22 18:41:34;;;;;;;1.33;1.20;;;13.30;99.90;;;;;;5051413;28;20530;-65
2021/05/22 18:44:00;;;;;;;1.37;1.27;;;13.20;99.90;;;;;;5051820;28;20578;-65
2021/05/22 18:46:25;;;;;;;1.93;1.13;;;13.20;99.90;;;;;;5051933;28;20200;-65
2021/05/22 18:48:51;;;;;;;1.70;1.60;;;13.20;99.90;;;;;;5051055;28;20178;-65
2021/05/22 18:51:17;;;;;;;1.77;1.20;;;13.10;99.90;;;;;;5051309;28;20165;-65
2021/05/22 18:53:42;;;;;;;2.43;1.50;;;13.10;99.90;;;;;;5051361;28;20244;-66
2021/05/22 18:56:08;;;;;;;1.43;1.33;;;13.10;99.90;;;;;;5051424;28;20166;-64
2021/05/22 18:58:33;;;;;;;2.60;1.60;;;13.00;99.90;;;;;;5050507;28;20673;-67
2021/05/22 19:00:59;;;;;;;2.57;1.90;;;13.00;99.90;;;;;;5051978;28;20602;-67
2021/05/22 19:03:25;;;;;;;2.50;1.47;;;13.10;99.90;;;;;;5051542;28;20213;-66
2021/05/22 19:05:50;;;;;;;2.00;1.90;;;13.00;99.90;;;;;;5050465;28;20177;-65
2021/05/22 19:08:18;;;;;;;1.50;1.20;;;13.00;99.90;;;;;;5051444;28;20600;-65
2021/05/22 19:10:44;;;;;;;1.70;1.30;;;13.00;99.90;;;;;;5051652;28;20177;-69
2021/05/22 19:13:09;;;;;;;1.20;1.10;;;13.00;99.90;;;;;;5050812;28;20233;-69
2021/05/22 19:15:35;;;;;;;1.57;1.13;;;13.00;99.90;;;;;;5051319;28;20594;-62
2021/05/22 19:18:04;;;;;;;0.90;0.90;;;13.00;99.90;;;;;;5050324;28;20181;-64
2021/05/22 19:20:29;;;;;;;2.20;1.00;;;13.00;99.90;;;;;;5050437;28;20231;-60
2021/05/22 19:22:55;;;;;;;2.77;1.23;;;12.90;99.90;;;;;;5050927;28;20193;-61
2021/05/22 19:25:20;;;;;;;1.60;1.33;;;12.90;99.90;;;;;;5051328;28;20180;-70
2021/05/22 19:27:46;;;;;;;2.13;1.10;;;12.90;99.90;;;;;;5050841;28;20185;-70
2021/05/22 19:30:13;;;;;;;1.63;1.53;;;12.80;99.90;;;;;;5051509;28;20177;-63
2021/05/22 19:32:41;;;;;;;2.30;1.53;;;12.80;99.90;;;;;;5050657;28;20205;-67
2021/05/22 19:35:07;;;;;;;2.63;1.50;;;12.80;99.90;;;;;;5050151;28;20173;-68
2021/05/22 19:37:33;;;;;;;2.47;1.20;;;12.80;99.90;;;;;;5050896;28;20219;-66
2021/05/22 19:39:58;;;;;;;2.80;1.33;;;12.70;99.90;;;;;;5050987;28;20166;-67
2021/05/22 19:42:24;;;;;;;1.20;1.13;;;12.70;99.90;;;;;;5050315;28;20181;-68
2021/05/22 19:44:50;;;;;;;1.53;1.43;;;12.70;99.90;;;;;;5051358;28;20193;-69
2021/05/22 19:47:15;;;;;;;1.50;1.37;;;12.70;99.90;;;;;;5052216;28;20231;-69
2021/05/22 19:49:41;;;;;;;1.50;1.40;;;12.70;99.90;;;;;;5051064;28;20586;-66
2021/05/22 19:52:06;;;;;;;1.30;1.20;;;12.70;99.90;;;;;;5049816;28;20197;-66
2021/05/22 19:54:32;;;;;;;2.80;1.10;;;12.70;99.90;;;;;;5048735;28;20209;-66
2021/05/22 19:56:58;;;;;;;1.63;1.50;;;12.60;99.90;;;;;;5051639;28;20189;-67
2021/05/22 19:59:24;;;;;;;2.07;1.50;;;12.60;99.90;;;;;;5051049;28;20170;-66
2021/05/22 20:01:49;;;;;;;1.73;1.20;;;12.60;99.90;;;;;;5050064;28;20184;-67
2021/05/22 20:04:15;;;;;;;4.30;1.70;;;12.60;99.90;;;;;;5050729;28;20201;-64
2021/05/22 20:06:40;;;;;;;1.50;1.40;;;12.60;99.90;;;;;;5050686;28;20192;-66
2021/05/22 20:09:06;;;;;;;1.60;1.50;;;12.50;99.90;;;;;;5050699;28;20623;-66
2021/05/22 20:11:32;;;;;;;2.77;1.93;;;12.50;99.90;;;;;;5051847;28;20178;-66
2021/05/22 20:13:58;;;;;;;1.73;1.50;;;12.50;99.90;;;;;;5050382;28;20211;-66
2021/05/22 20:16:24;;;;;;;1.77;1.53;;;12.50;99.90;;;;;;5050291;28;20166;-65
2021/05/22 20:18:50;;;;;;;1.70;1.60;;;12.50;99.90;;;;;;5049461;28;20188;-64
2021/05/22 20:21:15;;;;;;;2.43;1.50;;;12.40;99.90;;;;;;5049411;28;20209;-63
2021/05/22 20:23:41;;;;;;;3.17;2.40;;;12.40;99.90;;;;;;5051002;28;20251;-66
2021/05/22 20:26:07;;;;;;;1.87;1.70;;;12.40;99.90;;;;;;5050409;28;20220;-65
2021/05/22 20:28:34;;;;;;;3.00;1.80;;;12.40;99.90;;;;;;5049601;28;20212;-66
2021/05/22 20:31:03;;;;;;;2.07;1.57;;;12.40;99.90;;;;;;5050166;28;20169;-67
2021/05/22 20:33:31;;;;;;;3.03;1.60;;;12.40;99.90;;;;;;5049971;28;20613;-63
2021/05/22 20:35:56;;;;;;;1.70;1.60;;;12.40;99.90;;;;;;5049583;28;20173;-64
2021/05/22 20:38:22;;;;;;;1.60;1.50;;;12.40;99.90;;;;;;5050402;28;20170;-68
2021/05/22 20:40:47;;;;;;;1.67;1.57;;;12.40;99.90;;;;;;5052543;28;20594;-65
2021/05/22 20:43:15;;;;;;;3.37;2.17;;;12.40;99.90;;;;;;5054197;28;20276;-66
2021/05/22 20:45:40;;;;;;;2.37;1.67;;;12.40;99.90;;;;;;5053780;28;20219;-66
2021/05/22 20:48:06;;;;;;;2.03;1.80;;;12.30;99.90;;;;;;5052930;28;20793;-68
2021/05/22 20:50:31;;;;;;;2.03;1.90;;;12.30;99.90;;;;;;5053551;28;20200;-71
2021/05/22 20:52:57;;;;;;;1.90;1.80;;;12.20;99.90;;;;;;5053499;28;20288;-69
2021/05/22 20:55:24;;;;;;;2.53;2.03;;;12.10;99.90;;;;;;5053078;28;20178;-68
2021/05/22 20:57:50;;;;;;;3.70;1.83;;;12.10;99.90;;;;;;5053601;28;20550;-69
2021/05/22 21:00:16;;;;;;;2.73;2.00;;;12.10;99.90;;;;;;5052535;28;20253;-66
